createdAt,value
2023-03-29T00:00:31.755Z,5.30
2023-03-29T00:01:35.000Z,5.31
2023-03-29T00:02:33.551Z,5.31
2023-03-29T00:03:34.400Z,5.31
2023-03-29T00:04:35.184Z,5.33
2023-03-29T00:05:35.911Z,5.36
2023-03-29T00:06:36.611Z,5.38
2023-03-29T00:07:37.323Z,5.38
2023-03-29T00:08:38.042Z,5.38
2023-03-29T00:09:38.762Z,5.35
2023-03-29T00:10:39.915Z,5.33
2023-03-29T00:11:40.118Z,5.33
2023-03-29T00:12:40.816Z,5.30
2023-03-29T00:14:02.640Z,5.31
2023-03-29T00:14:42.357Z,5.31
2023-03-29T00:15:43.074Z,5.33
2023-03-29T00:16:43.869Z,5.33
2023-03-29T00:17:44.564Z,5.31
2023-03-29T00:18:45.217Z,5.33
2023-03-29T00:19:45.914Z,5.31
2023-03-29T00:20:46.630Z,5.28
2023-03-29T00:21:47.326Z,5.28
2023-03-29T00:22:48.032Z,5.25
2023-03-29T00:23:48.737Z,5.30
2023-03-29T00:24:49.432Z,5.33
2023-03-29T00:25:50.164Z,5.33
2023-03-29T00:26:50.868Z,5.31
2023-03-29T00:27:51.570Z,5.30
2023-03-29T00:28:52.280Z,5.30
2023-03-29T00:29:52.979Z,5.31
2023-03-29T00:30:53.925Z,5.33
2023-03-29T00:31:54.693Z,5.36
2023-03-29T00:32:55.395Z,5.35
2023-03-29T00:33:56.082Z,5.38
2023-03-29T00:34:56.799Z,5.38
2023-03-29T00:36:18.498Z,5.38
2023-03-29T00:36:58.200Z,5.39
2023-03-29T00:37:58.899Z,5.43
2023-03-29T00:38:59.604Z,5.42
2023-03-29T00:40:00.310Z,5.42
2023-03-29T00:41:01.371Z,5.45
2023-03-29T00:42:01.890Z,5.48
2023-03-29T00:43:02.707Z,5.51
2023-03-29T00:44:03.415Z,5.51
2023-03-29T00:45:04.201Z,5.53
2023-03-29T00:46:04.892Z,5.53
2023-03-29T00:47:05.568Z,5.53
2023-03-29T00:48:06.309Z,5.53
2023-03-29T00:49:06.973Z,5.53
2023-03-29T00:50:07.712Z,5.53
2023-03-29T00:51:09.871Z,5.53
2023-03-29T00:52:30.393Z,5.53
2023-03-29T00:53:10.090Z,5.53
2023-03-29T00:54:10.798Z,5.53
2023-03-29T00:55:11.508Z,5.54
2023-03-29T00:56:12.233Z,5.53
2023-03-29T00:57:13.899Z,5.56
2023-03-29T00:58:13.900Z,5.54
2023-03-29T00:59:14.112Z,5.57
2023-03-29T01:00:14.808Z,5.60
2023-03-29T01:01:15.542Z,5.61
2023-03-29T01:02:16.279Z,5.61
2023-03-29T01:03:17.020Z,5.63
2023-03-29T01:04:17.687Z,5.63
2023-03-29T01:05:18.397Z,5.63
2023-03-29T01:06:19.098Z,5.65
2023-03-29T01:07:19.802Z,5.65
2023-03-29T01:08:20.884Z,5.63
2023-03-29T01:09:21.091Z,5.63
2023-03-29T01:10:21.798Z,5.63
2023-03-29T01:11:22.517Z,5.64
2023-03-29T01:12:23.217Z,5.65
2023-03-29T01:13:23.940Z,5.65
2023-03-29T01:14:45.640Z,5.65
2023-03-29T01:15:25.344Z,5.64
2023-03-29T01:16:26.110Z,5.65
2023-03-29T01:17:26.839Z,5.64
2023-03-29T01:18:27.887Z,5.67
2023-03-29T01:19:28.090Z,5.71
2023-03-29T01:20:28.794Z,5.71
2023-03-29T01:21:29.502Z,5.68
2023-03-29T01:22:30.208Z,5.71
2023-03-29T01:23:31.387Z,5.76
2023-03-29T01:24:31.591Z,5.76
2023-03-29T01:25:32.306Z,5.76
2023-03-29T01:26:32.995Z,5.79
2023-03-29T01:27:33.712Z,5.79
2023-03-29T01:28:34.911Z,5.75
2023-03-29T01:29:35.121Z,5.75
2023-03-29T01:30:35.820Z,5.75
2023-03-29T01:31:36.590Z,5.75
2023-03-29T01:32:37.397Z,5.74
2023-03-29T01:33:38.391Z,5.71
2023-03-29T01:34:38.595Z,5.75
2023-03-29T01:36:06.895Z,5.78
2023-03-29T01:36:40.096Z,5.79
2023-03-29T01:37:40.795Z,5.82
2023-03-29T01:38:41.517Z,5.82
2023-03-29T01:39:42.211Z,5.85
2023-03-29T01:40:42.915Z,5.83
2023-03-29T01:41:43.611Z,5.83
2023-03-29T01:42:44.324Z,5.85
2023-03-29T01:43:45.048Z,5.83
2023-03-29T01:44:45.769Z,5.81
2023-03-29T01:45:46.487Z,5.79
2023-03-29T01:46:47.187Z,5.81
2023-03-29T01:47:47.904Z,5.82
2023-03-29T01:48:48.601Z,5.82
2023-03-29T01:49:49.340Z,5.86
2023-03-29T01:50:50.049Z,5.93
2023-03-29T01:51:50.753Z,5.94
2023-03-29T01:52:51.462Z,5.94
2023-03-29T01:53:52.177Z,5.96
2023-03-29T01:54:52.875Z,5.96
2023-03-29T01:56:14.579Z,6.01
2023-03-29T01:56:54.319Z,6.04
2023-03-29T01:57:54.982Z,6.04
2023-03-29T01:58:55.922Z,6.01
2023-03-29T01:59:56.621Z,6.03
2023-03-29T02:00:57.347Z,6.06
2023-03-29T02:01:58.125Z,6.04
2023-03-29T02:02:58.922Z,6.03
2023-03-29T02:03:59.607Z,6.03
2023-03-29T02:05:00.317Z,6.06
2023-03-29T02:06:01.010Z,6.03
2023-03-29T02:07:01.716Z,6.01
2023-03-29T02:08:02.421Z,6.00
2023-03-29T02:09:03.131Z,6.03
2023-03-29T02:10:03.837Z,6.03
2023-03-29T02:11:04.785Z,6.06
2023-03-29T02:12:05.060Z,6.06
2023-03-29T02:13:05.793Z,6.08
2023-03-29T02:14:06.485Z,6.08
2023-03-29T02:15:07.224Z,6.08
2023-03-29T02:16:07.936Z,6.09
2023-03-29T02:17:08.623Z,6.11
2023-03-29T02:18:09.350Z,6.12
2023-03-29T02:19:10.001Z,6.12
2023-03-29T02:20:38.391Z,6.11
2023-03-29T02:21:11.580Z,6.12
2023-03-29T02:22:12.281Z,6.12
2023-03-29T02:23:12.982Z,6.11
2023-03-29T02:24:13.892Z,6.14
2023-03-29T02:25:14.592Z,6.15
2023-03-29T02:26:15.297Z,6.15
2023-03-29T02:27:15.997Z,6.15
2023-03-29T02:28:16.723Z,6.17
2023-03-29T02:29:17.440Z,6.18
2023-03-29T02:30:18.127Z,6.18
2023-03-29T02:31:18.878Z,6.22
2023-03-29T02:32:19.623Z,6.25
2023-03-29T02:33:20.304Z,6.27
2023-03-29T02:34:20.942Z,6.25
2023-03-29T02:35:21.676Z,6.22
2023-03-29T02:36:22.380Z,6.21
2023-03-29T02:37:23.093Z,6.25
2023-03-29T02:38:23.793Z,6.28
2023-03-29T02:39:24.895Z,6.25
2023-03-29T02:40:25.110Z,6.27
2023-03-29T02:41:25.802Z,6.22
2023-03-29T02:42:26.508Z,6.25
2023-03-29T02:43:27.229Z,6.27
2023-03-29T02:44:28.388Z,6.25
2023-03-29T02:45:28.608Z,6.22
2023-03-29T02:46:50.323Z,6.22
2023-03-29T02:47:30.035Z,6.22
2023-03-29T02:48:30.815Z,6.22
2023-03-29T02:49:31.464Z,6.27
2023-03-29T02:50:32.178Z,6.27
2023-03-29T02:51:32.878Z,6.25
2023-03-29T02:52:33.599Z,6.28
2023-03-29T02:53:34.311Z,6.27
2023-03-29T02:54:35.393Z,6.28
2023-03-29T02:55:35.598Z,6.31
2023-03-29T02:56:36.300Z,6.36
2023-03-29T02:57:37.006Z,6.36
2023-03-29T02:58:37.711Z,6.33
2023-03-29T02:59:38.915Z,6.34
2023-03-29T03:00:39.118Z,6.33
2023-03-29T03:02:01.045Z,6.34
2023-03-29T03:02:40.784Z,6.33
2023-03-29T03:03:41.572Z,6.36
2023-03-29T03:04:42.395Z,6.37
2023-03-29T03:05:43.102Z,6.38
2023-03-29T03:06:43.826Z,6.34
2023-03-29T03:07:44.526Z,6.34
2023-03-29T03:08:45.226Z,6.37
2023-03-29T03:09:46.398Z,6.37
2023-03-29T03:10:46.606Z,6.36
2023-03-29T03:11:47.312Z,6.34
2023-03-29T03:12:48.015Z,6.34
2023-03-29T03:13:48.724Z,6.36
2023-03-29T03:14:49.476Z,6.36
2023-03-29T03:15:50.177Z,6.33
2023-03-29T03:16:50.939Z,6.34
2023-03-29T03:17:51.695Z,6.34
2023-03-29T03:18:52.403Z,6.36
2023-03-29T03:19:53.066Z,6.36
2023-03-29T03:21:17.395Z,6.36
2023-03-29T03:21:54.595Z,6.36
2023-03-29T03:22:55.297Z,6.36
2023-03-29T03:23:56.005Z,6.36
2023-03-29T03:24:56.724Z,6.37
2023-03-29T03:25:57.425Z,6.37
2023-03-29T03:26:58.136Z,6.38
2023-03-29T03:27:58.858Z,6.38
2023-03-29T03:28:59.530Z,6.37
2023-03-29T03:30:00.409Z,6.37
2023-03-29T03:31:01.292Z,6.36
2023-03-29T03:32:02.189Z,6.37
2023-03-29T03:33:02.899Z,6.38
2023-03-29T03:34:03.603Z,6.38
2023-03-29T03:35:04.392Z,6.38
2023-03-29T03:36:05.122Z,6.40
2023-03-29T03:37:05.829Z,6.40
2023-03-29T03:38:06.510Z,6.40
2023-03-29T03:39:07.295Z,6.41
2023-03-29T03:40:07.987Z,6.43
2023-03-29T03:41:08.685Z,6.46
2023-03-29T03:42:30.392Z,6.46
2023-03-29T03:43:10.099Z,6.43
2023-03-29T03:44:10.793Z,6.43
2023-03-29T03:45:11.536Z,6.44
2023-03-29T03:46:12.274Z,6.43
2023-03-29T03:47:12.956Z,6.43
2023-03-29T03:48:13.678Z,6.43
2023-03-29T03:49:14.384Z,6.43
2023-03-29T03:50:15.393Z,6.43
2023-03-29T03:51:15.592Z,6.48
2023-03-29T03:52:16.299Z,6.49
2023-03-29T03:53:17.005Z,6.49
2023-03-29T03:54:17.717Z,6.48
2023-03-29T03:55:18.896Z,6.49
2023-03-29T03:56:19.101Z,6.49
2023-03-29T03:57:19.839Z,6.49
2023-03-29T03:58:20.506Z,6.54
2023-03-29T03:59:21.203Z,6.52
2023-03-29T04:00:21.938Z,6.51
2023-03-29T04:01:22.642Z,6.51
2023-03-29T04:02:23.386Z,6.52
2023-03-29T04:03:45.124Z,6.54
2023-03-29T04:04:24.928Z,6.52
2023-03-29T04:05:25.639Z,6.52
2023-03-29T04:06:26.337Z,6.54
2023-03-29T04:07:27.039Z,6.54
2023-03-29T04:08:27.745Z,6.52
2023-03-29T04:09:28.451Z,6.55
2023-03-29T04:10:29.391Z,6.56
2023-03-29T04:11:30.095Z,6.56
2023-03-29T04:12:30.810Z,6.56
2023-03-29T04:13:31.506Z,6.58
2023-03-29T04:14:32.225Z,6.56
2023-03-29T04:15:33.005Z,6.56
2023-03-29T04:16:33.644Z,6.55
2023-03-29T04:17:34.467Z,6.52
2023-03-29T04:18:35.342Z,6.49
2023-03-29T04:19:36.121Z,6.43
2023-03-29T04:20:36.888Z,6.38
2023-03-29T04:21:37.597Z,6.36
2023-03-29T04:22:38.301Z,6.31
2023-03-29T04:23:39.017Z,6.28
2023-03-29T04:24:39.713Z,6.27
2023-03-29T04:25:40.423Z,6.21
2023-03-29T04:27:16.888Z,6.18
2023-03-29T04:27:42.093Z,6.14
2023-03-29T04:28:42.796Z,6.09
2023-03-29T04:29:43.500Z,6.12
2023-03-29T04:30:44.238Z,6.12
2023-03-29T04:31:45.016Z,6.11
2023-03-29T04:32:45.711Z,6.11
2023-03-29T04:33:46.370Z,6.08
2023-03-29T04:34:47.100Z,6.08
2023-03-29T04:35:47.757Z,6.06
2023-03-29T04:36:48.436Z,6.03
2023-03-29T04:37:49.148Z,6.00
2023-03-29T04:38:49.884Z,5.97
2023-03-29T04:39:50.574Z,5.94
2023-03-29T04:40:51.412Z,5.94
2023-03-29T04:41:52.107Z,5.91
2023-03-29T04:42:52.823Z,5.91
2023-03-29T04:43:53.517Z,5.91
2023-03-29T04:44:54.296Z,5.91
2023-03-29T04:45:55.475Z,5.93
2023-03-29T04:46:55.685Z,5.96
2023-03-29T04:47:56.454Z,5.94
2023-03-29T04:48:57.096Z,5.96
2023-03-29T04:49:57.841Z,6.00
2023-03-29T04:50:58.958Z,6.04
2023-03-29T04:51:59.177Z,6.06
2023-03-29T04:52:59.877Z,6.04
2023-03-29T04:54:00.581Z,6.08
2023-03-29T04:55:01.301Z,6.09
2023-03-29T04:56:01.993Z,6.11
2023-03-29T04:57:02.720Z,6.14
2023-03-29T04:58:03.398Z,6.15
2023-03-29T04:59:04.112Z,6.19
2023-03-29T05:00:04.812Z,6.21
2023-03-29T05:01:05.921Z,6.22
2023-03-29T05:02:06.172Z,6.22
2023-03-29T05:03:06.920Z,6.28
2023-03-29T05:04:07.629Z,6.31
2023-03-29T05:05:08.364Z,6.34
2023-03-29T05:06:09.397Z,6.37
2023-03-29T05:07:09.606Z,6.40
2023-03-29T05:08:45.893Z,6.43
2023-03-29T05:09:11.089Z,6.43
2023-03-29T05:10:11.798Z,6.46
2023-03-29T05:11:12.897Z,6.41
2023-03-29T05:12:13.124Z,6.44
2023-03-29T05:13:13.815Z,6.46
2023-03-29T05:14:14.513Z,6.48
2023-03-29T05:15:15.218Z,6.49
2023-03-29T05:16:16.068Z,6.51
2023-03-29T05:17:16.745Z,6.51
2023-03-29T05:18:17.448Z,6.52
2023-03-29T05:19:18.145Z,6.55
2023-03-29T05:20:18.893Z,6.56
2023-03-29T05:21:19.532Z,6.58
2023-03-29T05:22:20.232Z,6.58
2023-03-29T05:23:20.947Z,6.58
2023-03-29T05:24:21.649Z,6.59
2023-03-29T05:25:22.359Z,6.58
2023-03-29T05:26:23.400Z,6.61
2023-03-29T05:27:23.611Z,6.61
2023-03-29T05:28:24.311Z,6.61
2023-03-29T05:29:25.015Z,6.64
2023-03-29T05:30:25.717Z,6.64
2023-03-29T05:31:26.945Z,6.67
2023-03-29T05:32:27.128Z,6.67
2023-03-29T05:33:27.825Z,6.70
2023-03-29T05:34:28.539Z,6.70
2023-03-29T05:35:29.379Z,6.71
2023-03-29T05:36:30.061Z,6.70
2023-03-29T05:37:30.758Z,6.69
2023-03-29T05:38:31.465Z,6.70
2023-03-29T05:39:32.164Z,6.69
2023-03-29T05:40:32.871Z,6.69
2023-03-29T05:41:54.575Z,6.66
2023-03-29T05:42:34.276Z,6.62
2023-03-29T05:43:34.976Z,6.61
2023-03-29T05:44:35.687Z,6.62
2023-03-29T05:45:36.430Z,6.59
2023-03-29T05:46:37.097Z,6.59
2023-03-29T05:47:38.012Z,6.58
2023-03-29T05:48:38.690Z,6.56
2023-03-29T05:49:39.391Z,6.56
2023-03-29T05:50:40.142Z,6.55
2023-03-29T05:51:40.772Z,6.54
2023-03-29T05:52:41.898Z,6.51
2023-03-29T05:53:42.107Z,6.48
2023-03-29T05:54:42.810Z,6.46
2023-03-29T05:55:43.514Z,6.43
2023-03-29T05:56:44.240Z,6.43
2023-03-29T05:57:45.409Z,6.44
2023-03-29T05:58:45.619Z,6.44
2023-03-29T05:59:46.330Z,6.46
2023-03-29T06:00:47.028Z,6.46
2023-03-29T06:01:47.733Z,6.46
2023-03-29T06:02:48.556Z,6.44
2023-03-29T06:03:49.494Z,6.43
2023-03-29T06:05:11.196Z,6.44
2023-03-29T06:05:50.944Z,6.44
2023-03-29T06:06:51.569Z,6.46
2023-03-29T06:07:52.417Z,6.48
2023-03-29T06:08:53.112Z,6.49
2023-03-29T06:09:53.811Z,6.54
2023-03-29T06:10:54.518Z,6.55
2023-03-29T06:11:55.223Z,6.58
2023-03-29T06:12:55.938Z,6.61
2023-03-29T06:13:56.646Z,6.64
2023-03-29T06:14:57.361Z,6.67
2023-03-29T06:15:58.070Z,6.69
2023-03-29T06:16:58.815Z,6.73
2023-03-29T06:18:00.008Z,6.76
2023-03-29T06:19:00.168Z,6.80
2023-03-29T06:20:00.898Z,6.84
2023-03-29T06:21:01.920Z,6.84
2023-03-29T06:22:02.218Z,6.85
2023-03-29T06:23:03.406Z,6.87
2023-03-29T06:24:03.604Z,6.89
2023-03-29T06:25:04.472Z,6.92
2023-03-29T06:26:05.177Z,6.95
2023-03-29T06:27:05.884Z,6.97
2023-03-29T06:28:27.586Z,6.99
2023-03-29T06:29:07.288Z,7.02
2023-03-29T06:30:07.997Z,7.03
2023-03-29T06:31:08.759Z,7.05
2023-03-29T06:32:09.506Z,7.09
2023-03-29T06:33:10.250Z,7.09
2023-03-29T06:34:11.410Z,7.10
2023-03-29T06:35:11.619Z,7.15
2023-03-29T06:36:12.414Z,7.16
2023-03-29T06:37:13.058Z,7.16
2023-03-29T06:38:13.757Z,7.17
2023-03-29T06:39:14.906Z,7.20
2023-03-29T06:40:15.117Z,7.21
2023-03-29T06:41:15.819Z,7.23
2023-03-29T06:42:21.196Z,7.27
2023-03-29T06:43:18.122Z,7.31
2023-03-29T06:44:17.910Z,7.32
2023-03-29T06:45:19.680Z,7.35
2023-03-29T06:46:19.247Z,7.40
2023-03-29T06:47:19.946Z,7.45
2023-03-29T06:48:20.652Z,7.46
2023-03-29T06:49:21.407Z,7.49
2023-03-29T06:50:22.116Z,7.53
2023-03-29T06:51:23.397Z,7.55
2023-03-29T06:52:23.702Z,7.58
2023-03-29T06:53:45.422Z,7.63
2023-03-29T06:54:25.112Z,7.67
2023-03-29T06:55:25.815Z,7.68
2023-03-29T06:56:26.535Z,7.71
2023-03-29T06:57:27.257Z,7.69
2023-03-29T06:58:27.938Z,7.72
2023-03-29T06:59:28.929Z,7.72
2023-03-29T07:00:29.622Z,7.75
2023-03-29T07:01:30.366Z,7.79
2023-03-29T07:02:31.089Z,7.82
2023-03-29T07:03:31.745Z,7.83
2023-03-29T07:04:32.528Z,7.85
2023-03-29T07:05:33.280Z,7.90
2023-03-29T07:06:34.028Z,7.93
2023-03-29T07:07:34.684Z,7.97
2023-03-29T07:08:35.434Z,8.02
2023-03-29T07:09:36.134Z,8.02
2023-03-29T07:10:36.828Z,8.04
2023-03-29T07:11:37.535Z,8.05
2023-03-29T07:12:38.253Z,8.08
2023-03-29T07:13:38.945Z,8.10
2023-03-29T07:14:39.906Z,8.18
2023-03-29T07:15:40.613Z,8.20
2023-03-29T07:16:41.391Z,8.20
2023-03-29T07:17:42.066Z,8.20
2023-03-29T07:18:42.851Z,8.22
2023-03-29T07:20:04.924Z,8.25
2023-03-29T07:20:44.120Z,8.26
2023-03-29T07:21:44.866Z,8.26
2023-03-29T07:22:45.521Z,8.29
2023-03-29T07:23:46.233Z,8.34
2023-03-29T07:24:46.949Z,8.33
2023-03-29T07:25:47.917Z,8.34
2023-03-29T07:27:00.059Z,8.36
2023-03-29T07:27:50.219Z,8.43
2023-03-29T07:28:49.925Z,8.43
2023-03-29T07:29:50.797Z,8.44
2023-03-29T07:30:51.907Z,8.43
2023-03-29T07:31:52.185Z,8.48
2023-03-29T07:32:53.149Z,8.50
2023-03-29T07:33:53.683Z,8.47
2023-03-29T07:34:53.843Z,8.47
2023-03-29T07:35:54.571Z,8.52
2023-03-29T07:36:55.303Z,8.47
2023-03-29T07:37:56.118Z,8.53
2023-03-29T07:38:56.758Z,8.55
2023-03-29T07:39:57.460Z,8.55
2023-03-29T07:40:58.405Z,8.59
2023-03-29T07:41:59.114Z,8.61
2023-03-29T07:42:59.818Z,8.65
2023-03-29T07:44:01.976Z,8.66
2023-03-29T07:45:01.396Z,8.66
2023-03-29T07:46:02.423Z,8.70
2023-03-29T07:47:02.630Z,8.73
2023-03-29T07:48:03.381Z,8.76
2023-03-29T07:49:04.041Z,8.77
2023-03-29T07:50:25.760Z,8.79
2023-03-29T07:51:06.022Z,8.79
2023-03-29T07:52:06.274Z,8.80
2023-03-29T07:53:06.899Z,8.79
2023-03-29T07:54:07.653Z,8.81
2023-03-29T07:55:08.381Z,8.84
2023-03-29T07:56:09.408Z,8.86
2023-03-29T07:57:09.712Z,8.80
2023-03-29T07:58:10.398Z,8.83
2023-03-29T07:59:11.095Z,8.89
2023-03-29T08:00:11.804Z,8.91
2023-03-29T08:01:15.360Z,8.92
2023-03-29T08:02:13.467Z,8.96
2023-03-29T08:03:14.258Z,8.95
2023-03-29T08:04:15.065Z,8.95
2023-03-29T08:05:23.182Z,8.92
2023-03-29T08:06:17.377Z,8.96
2023-03-29T08:07:18.963Z,9.02
2023-03-29T08:08:38.765Z,9.02
2023-03-29T08:09:18.433Z,9.01
2023-03-29T08:10:19.160Z,9.10
2023-03-29T08:11:19.910Z,9.05
2023-03-29T08:12:22.512Z,9.08
2023-03-29T08:13:21.458Z,9.10
2023-03-29T08:14:22.155Z,9.05
2023-03-29T08:15:22.895Z,9.04
2023-03-29T08:16:23.921Z,9.08
2023-03-29T08:17:24.199Z,9.14
2023-03-29T08:18:24.846Z,9.24
2023-03-29T08:19:25.573Z,9.35
2023-03-29T08:20:26.267Z,9.29
2023-03-29T08:21:27.423Z,9.33
2023-03-29T08:22:27.794Z,9.42
2023-03-29T08:23:28.418Z,9.57
2023-03-29T08:24:29.148Z,9.65
2023-03-29T08:25:29.859Z,9.74
2023-03-29T08:26:30.917Z,9.83
2023-03-29T08:27:31.118Z,9.89
2023-03-29T08:28:52.831Z,9.86
2023-03-29T08:29:32.553Z,9.87
2023-03-29T08:30:33.342Z,9.87
2023-03-29T08:31:34.124Z,9.99
2023-03-29T08:32:34.852Z,10.20
2023-03-29T08:33:35.508Z,10.17
2023-03-29T08:34:36.214Z,10.17
2023-03-29T08:35:36.945Z,10.08
2023-03-29T08:36:37.938Z,10.15
2023-03-29T08:37:38.178Z,10.25
2023-03-29T08:38:38.866Z,10.33
2023-03-29T08:39:39.556Z,10.33
2023-03-29T08:40:40.262Z,10.34
2023-03-29T08:41:41.419Z,10.40
2023-03-29T08:42:41.630Z,10.29
2023-03-29T08:43:42.329Z,10.25
2023-03-29T08:44:43.037Z,10.25
2023-03-29T08:45:43.752Z,10.23
2023-03-29T08:46:44.980Z,10.27
2023-03-29T08:47:45.177Z,10.27
2023-03-29T08:48:45.840Z,10.32
2023-03-29T08:50:07.549Z,10.25
2023-03-29T08:50:47.246Z,10.20
2023-03-29T08:51:47.979Z,10.27
2023-03-29T08:52:48.723Z,10.40
2023-03-29T08:53:49.362Z,10.45
2023-03-29T08:54:50.073Z,10.55
2023-03-29T08:55:50.779Z,10.51
2023-03-29T08:56:51.932Z,10.45
2023-03-29T08:57:52.149Z,10.41
2023-03-29T08:58:52.855Z,10.38
2023-03-29T08:59:53.559Z,10.23
2023-03-29T09:00:54.284Z,10.12
2023-03-29T09:01:55.463Z,10.08
2023-03-29T09:02:55.710Z,10.01
2023-03-29T09:03:56.542Z,9.96
2023-03-29T09:05:18.279Z,9.90
2023-03-29T09:05:57.999Z,9.90
2023-03-29T09:06:59.475Z,9.87
2023-03-29T09:07:59.719Z,9.89
2023-03-29T09:09:00.352Z,9.87
2023-03-29T09:10:01.057Z,9.87
2023-03-29T09:11:01.970Z,9.86
2023-03-29T09:12:02.920Z,9.87
2023-03-29T09:13:03.675Z,9.91
2023-03-29T09:14:04.337Z,9.99
2023-03-29T09:15:05.082Z,10.02
2023-03-29T09:16:05.801Z,10.09
2023-03-29T09:17:06.926Z,10.07
2023-03-29T09:18:07.178Z,10.11
2023-03-29T09:19:07.836Z,10.11
2023-03-29T09:20:08.542Z,10.15
2023-03-29T09:21:09.251Z,10.22
2023-03-29T09:22:10.440Z,10.22
2023-03-29T09:23:10.687Z,10.20
2023-03-29T09:24:11.331Z,10.25
2023-03-29T09:25:12.068Z,10.29
2023-03-29T09:26:12.748Z,10.34
2023-03-29T09:27:13.925Z,10.38
2023-03-29T09:28:14.121Z,10.48
2023-03-29T09:29:35.854Z,10.51
2023-03-29T09:30:15.582Z,10.55
2023-03-29T09:31:16.317Z,10.60
2023-03-29T09:32:17.422Z,10.68
2023-03-29T09:33:17.631Z,10.76
2023-03-29T09:34:18.341Z,10.82
2023-03-29T09:35:19.043Z,10.85
2023-03-29T09:36:19.744Z,10.94
2023-03-29T09:37:20.926Z,10.96
2023-03-29T09:38:21.175Z,11.18
2023-03-29T09:39:21.849Z,11.24
2023-03-29T09:40:22.556Z,11.44
2023-03-29T09:41:23.331Z,11.60
2023-03-29T09:42:24.419Z,11.67
2023-03-29T09:43:24.626Z,11.65
2023-03-29T09:44:31.199Z,11.75
2023-03-29T09:45:26.964Z,11.62
2023-03-29T09:46:47.645Z,11.61
2023-03-29T09:47:27.442Z,11.51
2023-03-29T09:48:28.122Z,11.60
2023-03-29T09:49:28.827Z,11.69
2023-03-29T09:50:31.514Z,11.76
2023-03-29T09:51:30.456Z,12.02
2023-03-29T09:52:31.174Z,12.38
2023-03-29T09:53:31.913Z,12.24
2023-03-29T09:54:32.564Z,12.27
2023-03-29T09:55:33.515Z,12.05
2023-03-29T09:56:33.802Z,11.86
2023-03-29T09:57:34.959Z,11.90
2023-03-29T09:58:35.130Z,11.85
2023-03-29T09:59:35.851Z,11.91
2023-03-29T10:00:36.551Z,11.83
2023-03-29T10:01:37.301Z,11.96
2023-03-29T10:02:38.474Z,11.88
2023-03-29T10:03:38.652Z,12.20
2023-03-29T10:04:39.387Z,12.37
2023-03-29T10:05:40.086Z,12.29
2023-03-29T10:06:40.766Z,12.24
2023-03-29T10:07:41.930Z,12.47
2023-03-29T10:08:42.197Z,12.65
2023-03-29T10:09:42.833Z,12.62
2023-03-29T10:10:43.537Z,12.68
2023-03-29T10:11:44.245Z,12.75
2023-03-29T10:12:45.425Z,12.82
2023-03-29T10:13:45.633Z,13.01
2023-03-29T10:14:46.336Z,12.97
2023-03-29T10:15:47.045Z,12.95
2023-03-29T10:16:47.817Z,12.87
2023-03-29T10:17:48.944Z,12.74
2023-03-29T10:18:49.139Z,12.83
2023-03-29T10:19:49.853Z,13.05
2023-03-29T10:20:50.568Z,13.54
2023-03-29T10:21:51.266Z,13.30
2023-03-29T10:22:52.448Z,13.11
2023-03-29T10:23:52.706Z,12.82
2023-03-29T10:24:53.360Z,12.64
2023-03-29T10:25:54.049Z,12.78
2023-03-29T10:26:54.753Z,12.70
2023-03-29T10:27:55.928Z,12.39
2023-03-29T10:28:56.135Z,12.47
2023-03-29T10:29:56.897Z,12.35
2023-03-29T10:30:57.582Z,12.39
2023-03-29T10:31:58.369Z,12.46
2023-03-29T10:32:59.465Z,12.72
2023-03-29T10:33:59.634Z,12.82
2023-03-29T10:35:00.395Z,12.92
2023-03-29T10:36:01.192Z,12.87
2023-03-29T10:37:01.847Z,13.11
2023-03-29T10:38:02.928Z,13.66
2023-03-29T10:39:05.746Z,13.97
2023-03-29T10:40:03.930Z,14.04
2023-03-29T10:41:04.824Z,14.09
2023-03-29T10:42:05.615Z,14.10
2023-03-29T10:43:06.435Z,13.69
2023-03-29T10:44:07.133Z,13.64
2023-03-29T10:45:07.834Z,13.69
2023-03-29T10:46:08.608Z,13.52
2023-03-29T10:47:09.282Z,13.30
2023-03-29T10:48:10.485Z,13.42
2023-03-29T10:49:10.683Z,13.49
2023-03-29T10:50:11.387Z,13.38
2023-03-29T10:51:12.093Z,13.30
2023-03-29T10:52:12.800Z,13.10
2023-03-29T10:53:13.929Z,13.36
2023-03-29T10:54:14.311Z,13.38
2023-03-29T10:55:14.951Z,13.41
2023-03-29T10:56:15.655Z,13.67
2023-03-29T10:57:16.406Z,13.81
2023-03-29T10:58:17.433Z,13.97
2023-03-29T10:59:17.655Z,14.43
2023-03-29T11:00:18.353Z,14.96
2023-03-29T11:01:19.136Z,15.38
2023-03-29T11:02:19.843Z,15.59
2023-03-29T11:03:21.749Z,15.71
2023-03-29T11:04:21.064Z,15.44
2023-03-29T11:05:21.782Z,15.13
2023-03-29T11:06:22.474Z,14.94
2023-03-29T11:07:23.183Z,14.57
2023-03-29T11:08:23.951Z,14.46
2023-03-29T11:09:24.686Z,14.57
2023-03-29T11:10:25.325Z,14.57
2023-03-29T11:11:26.018Z,14.55
2023-03-29T11:12:26.726Z,14.46
2023-03-29T11:13:27.437Z,14.42
2023-03-29T11:14:28.136Z,14.22
2023-03-29T11:15:28.867Z,13.95
2023-03-29T11:16:29.556Z,13.88
2023-03-29T11:17:30.274Z,13.85
2023-03-29T11:18:31.435Z,13.82
2023-03-29T11:19:31.634Z,14.00
2023-03-29T11:20:32.346Z,14.29
2023-03-29T11:21:33.051Z,14.54
2023-03-29T11:22:33.757Z,14.35
2023-03-29T11:23:34.947Z,14.14
2023-03-29T11:24:35.195Z,14.06
2023-03-29T11:25:35.833Z,14.12
2023-03-29T11:26:36.533Z,14.28
2023-03-29T11:27:37.246Z,14.29
2023-03-29T11:28:38.435Z,14.46
2023-03-29T11:29:38.639Z,14.65
2023-03-29T11:30:39.345Z,14.88
2023-03-29T11:31:40.118Z,14.72
2023-03-29T11:32:40.783Z,14.45
2023-03-29T11:33:41.938Z,14.42
2023-03-29T11:34:42.143Z,14.32
2023-03-29T11:35:42.862Z,14.27
2023-03-29T11:36:43.553Z,14.50
2023-03-29T11:37:44.258Z,14.68
2023-03-29T11:38:45.562Z,14.77
2023-03-29T11:39:45.743Z,14.84
2023-03-29T11:40:46.391Z,15.13
2023-03-29T11:41:47.093Z,15.06
2023-03-29T11:42:47.791Z,14.94
2023-03-29T11:43:48.508Z,14.91
2023-03-29T11:44:49.221Z,14.84
2023-03-29T11:45:49.953Z,15.09
2023-03-29T11:46:50.715Z,15.20
2023-03-29T11:47:51.367Z,15.47
2023-03-29T11:48:52.448Z,15.93
2023-03-29T11:49:52.646Z,15.86
2023-03-29T11:50:53.349Z,15.90
2023-03-29T11:51:54.054Z,15.75
2023-03-29T11:52:54.759Z,15.54
2023-03-29T11:53:55.940Z,15.54
2023-03-29T11:54:56.226Z,15.50
2023-03-29T11:55:56.852Z,15.54
2023-03-29T11:56:57.619Z,15.56
2023-03-29T11:57:58.297Z,15.83
2023-03-29T11:58:59.459Z,15.89
2023-03-29T11:59:59.665Z,16.25
2023-03-29T12:01:00.592Z,16.86
2023-03-29T12:02:01.402Z,17.75
2023-03-29T12:03:02.139Z,16.78
2023-03-29T12:04:03.016Z,16.28
2023-03-29T12:05:03.841Z,16.24
2023-03-29T12:06:04.547Z,16.14
2023-03-29T12:07:05.241Z,16.23
2023-03-29T12:08:05.950Z,16.28
2023-03-29T12:09:06.942Z,16.53
2023-03-29T12:10:07.222Z,16.46
2023-03-29T12:11:07.892Z,16.43
2023-03-29T12:12:08.586Z,16.58
2023-03-29T12:13:09.289Z,16.70
2023-03-29T12:14:10.003Z,16.73
2023-03-29T12:15:10.710Z,16.42
2023-03-29T12:16:11.420Z,16.24
2023-03-29T12:17:12.107Z,16.50
2023-03-29T12:18:12.810Z,16.48
2023-03-29T12:19:13.946Z,16.50
2023-03-29T12:20:14.150Z,16.58
2023-03-29T12:21:14.865Z,16.30
2023-03-29T12:22:15.554Z,16.00
2023-03-29T12:23:16.274Z,15.94
2023-03-29T12:24:16.989Z,15.97
2023-03-29T12:25:19.241Z,16.00
2023-03-29T12:26:18.341Z,15.80
2023-03-29T12:27:19.087Z,15.62
2023-03-29T12:28:19.798Z,15.67
2023-03-29T12:29:20.507Z,15.75
2023-03-29T12:30:21.255Z,15.80
2023-03-29T12:31:21.963Z,15.90
2023-03-29T12:32:22.670Z,15.86
2023-03-29T12:33:23.396Z,16.04
2023-03-29T12:34:24.106Z,15.96
2023-03-29T12:35:24.815Z,15.92
2023-03-29T12:36:25.511Z,15.89
2023-03-29T12:37:26.218Z,15.87
2023-03-29T12:38:29.368Z,15.82
2023-03-29T12:39:27.799Z,15.68
2023-03-29T12:40:28.571Z,15.60
2023-03-29T12:41:29.209Z,15.60
2023-03-29T12:42:29.912Z,15.62
2023-03-29T12:43:30.617Z,15.67
2023-03-29T12:44:31.328Z,15.54
2023-03-29T12:45:32.033Z,15.53
2023-03-29T12:46:32.822Z,15.64
2023-03-29T12:47:33.790Z,15.75
2023-03-29T12:48:34.491Z,15.67
2023-03-29T12:49:35.200Z,15.74
2023-03-29T12:50:35.912Z,15.78
2023-03-29T12:51:36.642Z,15.74
2023-03-29T12:52:37.330Z,15.62
2023-03-29T12:53:59.943Z,15.64
2023-03-29T12:54:38.657Z,15.71
2023-03-29T12:55:39.408Z,15.53
2023-03-29T12:56:40.075Z,15.36
2023-03-29T12:57:40.743Z,15.46
2023-03-29T12:58:41.461Z,15.54
2023-03-29T12:59:42.458Z,15.51
2023-03-29T13:00:42.737Z,15.57
2023-03-29T13:01:43.525Z,15.49
2023-03-29T13:02:44.318Z,15.44
2023-03-29T13:03:45.041Z,15.13
2023-03-29T13:04:45.756Z,15.03
2023-03-29T13:05:46.514Z,15.01
2023-03-29T13:06:47.186Z,14.84
2023-03-29T13:07:47.894Z,14.72
2023-03-29T13:08:48.596Z,14.70
2023-03-29T13:09:49.467Z,14.78
2023-03-29T13:10:50.213Z,14.78
2023-03-29T13:11:50.842Z,14.78
2023-03-29T13:12:51.544Z,14.77
2023-03-29T13:13:52.277Z,14.70
2023-03-29T13:14:52.972Z,14.61
2023-03-29T13:15:53.706Z,14.61
2023-03-29T13:16:54.369Z,14.58
2023-03-29T13:19:43.888Z,14.50
2023-03-29T13:20:44.614Z,14.51